Time;durP1;ratioP1;P1;durP2;ratioP2;P2;SDS_P1;SDS_P2;PMS_P1;PMS_P2;Temp;Humidity;BMP_temperature;BMP_pressure;BME280_temperature;BME280_humidity;BME280_pressure;Samples;Min_cycle;Max_cycle;Signal;HPM_P1;HPM_P2
2021/07/14 00:00:49;;;;;;;;;;;19.70;99.90;;;;;;5093845;28;20270;-74
2021/07/14 00:03:15;;;;;;;;;;;19.70;99.90;;;;;;5093894;28;19914;-74
2021/07/14 00:05:41;;;;;;;;;;;19.70;99.90;;;;;;5094088;28;19918;-74
2021/07/14 00:08:08;;;;;;;;;;;19.60;99.90;;;;;;5094976;28;19915;-74
2021/07/14 00:10:34;;;;;;;;;;;19.60;99.90;;;;;;5094569;28;19908;-74
2021/07/14 00:23:25;;;;;;;;;;;19.60;99.90;;;;;;5100432;28;19915;-73
2021/07/14 00:25:51;;;;;;;;;;;19.60;99.90;;;;;;5094177;28;19921;-74
2021/07/14 00:28:18;;;;;;;;;;;19.60;99.90;;;;;;5095047;28;19915;-75
2021/07/14 00:30:49;;;;;;;;;;;19.60;99.90;;;;;;5096554;28;19908;-77
2021/07/14 00:33:15;;;;;;;;;;;19.70;99.90;;;;;;5095844;28;19904;-74
2021/07/14 00:35:41;;;;;;;;;;;19.60;99.90;;;;;;5095706;28;19915;-75
2021/07/14 00:38:07;;;;;;;;;;;19.60;99.90;;;;;;5095493;28;19920;-75
2021/07/14 00:40:33;;;;;;;;;;;19.60;99.90;;;;;;5094983;28;19912;-74
2021/07/14 00:42:59;;;;;;;;;;;19.60;99.90;;;;;;5094758;28;19908;-75
2021/07/14 00:45:25;;;;;;;;;;;19.60;99.90;;;;;;5094740;28;19919;-75
2021/07/14 00:47:55;;;;;;;;;;;19.60;99.90;;;;;;5094081;28;19908;-75
2021/07/14 00:50:21;;;;;;;;;;;19.60;99.90;;;;;;5094315;28;19908;-75
2021/07/14 00:52:47;;;;;;;;;;;19.60;99.90;;;;;;5096258;28;20248;-77
2021/07/14 00:55:13;;;;;;;;;;;19.60;99.90;;;;;;5098685;28;19923;-78
2021/07/14 00:57:39;;;;;;;;;;;19.60;99.90;;;;;;5097620;28;19908;-76
2021/07/14 01:00:06;;;;;;;;;;;19.60;99.90;;;;;;5096206;28;19912;-76
2021/07/14 01:02:31;;;;;;;;;;;19.60;99.90;;;;;;5094484;28;19908;-76
2021/07/14 01:05:11;;;;;;;;;;;19.60;99.90;;;;;;5094838;28;19961;-76
2021/07/14 01:07:43;;;;;;;;;;;19.50;99.90;;;;;;5098509;28;19912;-78
2021/07/14 01:10:26;;;;;;;;;;;19.60;99.90;;;;;;5096561;28;19904;-77
2021/07/14 01:12:58;;;;;;;;;;;19.50;99.90;;;;;;5099583;28;19904;-76
2021/07/14 01:15:25;;;;;;;;;;;19.50;99.90;;;;;;5100509;28;19904;-77
2021/07/14 01:17:57;;;;;;;;;;;19.50;99.90;;;;;;5098814;28;19904;-77
2021/07/14 01:20:23;;;;;;;;;;;19.50;99.90;;;;;;5097588;28;19908;-77
2021/07/14 01:22:52;;;;;;;;;;;19.50;99.90;;;;;;5098264;28;19904;-77
2021/07/14 01:25:47;;;;;;;;;;;19.50;99.90;;;;;;5098277;28;20272;-78
2021/07/14 01:28:13;;;;;;;;;;;19.50;99.90;;;;;;5083907;28;19967;-79
2021/07/14 01:30:39;;;;;;;;;;;19.50;99.90;;;;;;5100999;28;19904;-75
2021/07/14 01:33:05;;;;;;;;;;;19.50;99.90;;;;;;5095084;28;20357;-76
2021/07/14 01:35:31;;;;;;;;;;;19.50;99.90;;;;;;5093089;28;19927;-77
2021/07/14 01:37:57;;;;;;;;;;;19.50;99.90;;;;;;5096234;28;19920;-77
2021/07/14 01:40:23;;;;;;;;;;;19.50;99.90;;;;;;5099573;28;19904;-77
2021/07/14 01:42:50;;;;;;;;;;;19.60;99.90;;;;;;5097551;28;19908;-77
2021/07/14 01:45:16;;;;;;;;;;;19.50;99.90;;;;;;5098095;28;19919;-76
2021/07/14 01:47:42;;;;;;;;;;;19.60;99.90;;;;;;5100429;28;19904;-77
2021/07/14 01:50:08;;;;;;;;;;;19.50;99.90;;;;;;5097845;28;20264;-75
2021/07/14 01:52:34;;;;;;;;;;;19.60;99.90;;;;;;5096637;28;19912;-76
2021/07/14 01:55:03;;;;;;;;;;;19.60;99.90;;;;;;5097242;28;19904;-75
2021/07/14 01:57:29;;;;;;;;;;;19.60;99.90;;;;;;5098495;28;20268;-76
2021/07/14 01:59:55;;;;;;;;;;;19.60;99.90;;;;;;5096374;28;19904;-76
2021/07/14 02:02:24;;;;;;;;;;;19.60;99.90;;;;;;5097982;28;19912;-76
2021/07/14 02:04:50;;;;;;;;;;;19.60;99.90;;;;;;5100448;28;19916;-76
2021/07/14 02:07:17;;;;;;;;;;;19.60;99.90;;;;;;5095908;28;19935;-76
2021/07/14 02:09:43;;;;;;;;;;;19.60;99.90;;;;;;5098582;28;19904;-75
2021/07/14 02:12:11;;;;;;;;;;;19.60;99.90;;;;;;5097543;28;19904;-76
2021/07/14 02:14:51;;;;;;;;;;;19.60;99.90;;;;;;5098159;28;19904;-76
2021/07/14 02:17:17;;;;;;;;;;;19.70;99.90;;;;;;5097587;28;19904;-75
2021/07/14 02:19:46;;;;;;;;;;;19.70;99.90;;;;;;5096409;28;19915;-77
2021/07/14 02:22:12;;;;;;;;;;;19.70;99.90;;;;;;5079900;28;20360;-77
2021/07/14 02:24:38;;;;;;;;;;;19.60;99.90;;;;;;5096895;28;19927;-77
2021/07/14 02:27:05;;;;;;;;;;;19.70;99.90;;;;;;5097067;28;20264;-76
2021/07/14 02:29:38;;;;;;;;;;;19.60;99.90;;;;;;5097111;28;20349;-76
2021/07/14 02:32:04;;;;;;;;;;;19.60;99.90;;;;;;5096390;28;19919;-77
2021/07/14 02:34:30;;;;;;;;;;;19.70;99.90;;;;;;5095154;28;20272;-76
2021/07/14 02:36:57;;;;;;;;;;;19.70;99.90;;;;;;5095852;28;19924;-78
2021/07/14 02:39:23;;;;;;;;;;;19.70;99.90;;;;;;5096184;28;19915;-76
2021/07/14 02:41:53;;;;;;;;;;;19.70;99.90;;;;;;5095769;28;19904;-76
2021/07/14 02:44:20;;;;;;;;;;;19.70;99.90;;;;;;5096086;28;19912;-76
2021/07/14 02:46:46;;;;;;;;;;;19.70;99.90;;;;;;5094806;28;19911;-77
2021/07/14 02:49:12;;;;;;;;;;;19.70;99.90;;;;;;5097152;28;20014;-78
2021/07/14 02:51:38;;;;;;;;;;;19.70;99.90;;;;;;5094222;28;19911;-77
2021/07/14 02:54:17;;;;;;;;;;;19.70;99.90;;;;;;5094472;28;19904;-77
2021/07/14 02:56:43;;;;;;;;;;;19.80;99.90;;;;;;5078170;28;20353;-78
2021/07/14 02:59:09;;;;;;;;;;;19.80;99.90;;;;;;5093862;28;19904;-77
2021/07/14 03:01:39;;;;;;;;;;;19.80;99.90;;;;;;5096349;28;19947;-77
2021/07/14 03:04:05;;;;;;;;;;;19.90;99.90;;;;;;5094718;28;19912;-77
2021/07/14 03:06:34;;;;;;;;;;;19.90;99.90;;;;;;5094278;28;19912;-76
2021/07/14 03:09:03;;;;;;;;;;;19.90;99.90;;;;;;5094144;28;19904;-76
2021/07/14 03:11:37;;;;;;;;;;;19.90;99.90;;;;;;5095602;28;19970;-76
2021/07/14 03:14:03;;;;;;;;;;;19.90;99.90;;;;;;5095227;28;19908;-77
2021/07/14 03:16:30;;;;;;;;;;;19.90;99.90;;;;;;5096750;28;19908;-78
2021/07/14 03:18:56;;;;;;;;;;;19.90;99.90;;;;;;5094921;28;19904;-77
2021/07/14 03:21:22;;;;;;;;;;;19.90;99.90;;;;;;5095068;28;19912;-76
2021/07/14 03:23:48;;;;;;;;;;;20.00;99.90;;;;;;5094081;28;19911;-76
2021/07/14 03:26:14;;;;;;;;;;;20.00;99.90;;;;;;5093144;28;20391;-76
2021/07/14 03:28:40;;;;;;;;;;;20.00;99.90;;;;;;5094727;28;19915;-77
2021/07/14 03:31:06;;;;;;;;;;;20.00;99.90;;;;;;5093702;28;19982;-77
2021/07/14 03:33:32;;;;;;;;;;;20.00;99.90;;;;;;5094106;28;20422;-77
2021/07/14 03:35:58;;;;;;;;;;;20.00;99.90;;;;;;5095066;28;19915;-77
2021/07/14 03:38:28;;;;;;;;;;;20.00;99.90;;;;;;5094900;28;19920;-77
2021/07/14 03:40:54;;;;;;;;;;;20.00;99.90;;;;;;5094903;28;19912;-77
2021/07/14 03:43:20;;;;;;;;;;;20.10;99.90;;;;;;5076479;28;19904;-77
2021/07/14 03:45:46;;;;;;;;;;;20.10;99.90;;;;;;5093626;28;19919;-77
2021/07/14 03:48:18;;;;;;;;;;;20.10;99.90;;;;;;5093258;28;20282;-77
2021/07/14 03:50:47;;;;;;;;;;;20.10;99.90;;;;;;5094118;28;19907;-78
2021/07/14 03:53:13;;;;;;;;;;;20.10;99.90;;;;;;5093635;28;19911;-77
2021/07/14 03:55:39;;;;;;;;;;;20.20;99.90;;;;;;5093233;28;19903;-76
2021/07/14 03:58:05;;;;;;;;;;;20.30;99.90;;;;;;5093973;28;20360;-77
2021/07/14 04:00:31;;;;;;;;;;;20.30;99.90;;;;;;5093164;28;20285;-76
2021/07/14 04:02:57;;;;;;;;;;;20.30;99.90;;;;;;5092626;28;19908;-77
2021/07/14 04:05:23;;;;;;;;;;;20.30;99.90;;;;;;5094668;28;19919;-74
2021/07/14 04:07:49;;;;;;;;;;;20.30;99.90;;;;;;5096796;28;19919;-75
2021/07/14 04:10:15;;;;;;;;;;;20.30;99.90;;;;;;5098152;28;19907;-75
2021/07/14 04:12:41;;;;;;;;;;;20.30;99.90;;;;;;5095778;28;19908;-75
2021/07/14 04:15:07;;;;;;;;;;;20.40;99.90;;;;;;5097180;28;19904;-77
2021/07/14 04:17:33;;;;;;;;;;;20.40;99.90;;;;;;5094535;28;19913;-76
2021/07/14 04:19:59;;;;;;;;;;;20.40;99.90;;;;;;5095742;27;19912;-77
2021/07/14 04:22:25;;;;;;;;;;;20.40;99.90;;;;;;5095849;28;20376;-76
2021/07/14 04:24:51;;;;;;;;;;;20.40;99.90;;;;;;5095022;28;19912;-75
2021/07/14 04:27:17;;;;;;;;;;;20.40;99.90;;;;;;5094927;28;19957;-74
2021/07/14 04:29:43;;;;;;;;;;;20.50;99.90;;;;;;5093817;28;19904;-75
2021/07/14 04:32:09;;;;;;;;;;;20.40;99.90;;;;;;5094384;28;19908;-76
2021/07/14 04:34:35;;;;;;;;;;;20.40;99.90;;;;;;5093323;28;19908;-75
2021/07/14 04:37:01;;;;;;;;;;;20.40;99.90;;;;;;5093652;28;19920;-73
2021/07/14 04:39:27;;;;;;;;;;;20.40;99.90;;;;;;5094371;28;19908;-76
2021/07/14 04:41:53;;;;;;;;;;;20.40;99.90;;;;;;5095261;28;20281;-74
2021/07/14 04:44:36;;;;;;;;;;;20.40;99.90;;;;;;5096223;28;19922;-75
2021/07/14 04:47:02;;;;;;;;;;;20.40;99.90;;;;;;5093653;28;19915;-74
2021/07/14 04:49:28;;;;;;;;;;;20.50;99.90;;;;;;5093090;28;19912;-73
2021/07/14 04:51:54;;;;;;;;;;;20.50;99.90;;;;;;5076544;28;19908;-74
2021/07/14 04:54:20;;;;;;;;;;;20.60;99.90;;;;;;5093186;28;19904;-74
2021/07/14 04:56:49;;;;;;;;;;;20.60;99.90;;;;;;5094030;28;19915;-75
2021/07/14 04:59:16;;;;;;;;;;;20.70;99.90;;;;;;5093489;28;19909;-75
2021/07/14 05:01:42;;;;;;;;;;;20.80;99.90;;;;;;5093131;28;20404;-75
2021/07/14 05:04:08;;;;;;;;;;;20.80;99.90;;;;;;5093485;28;19908;-74
2021/07/14 05:06:33;;;;;;;;;;;20.90;99.90;;;;;;5093453;28;19923;-74
2021/07/14 05:08:59;;;;;;;;;;;21.00;99.90;;;;;;5093263;28;19912;-74
2021/07/14 05:11:25;;;;;;;;;;;21.10;99.90;;;;;;5096441;28;20268;-75
2021/07/14 05:13:51;;;;;;;;;;;21.10;99.90;;;;;;5097753;28;19908;-74
2021/07/14 05:16:17;;;;;;;;;;;21.20;99.90;;;;;;5097153;28;19908;-74
2021/07/14 05:18:43;;;;;;;;;;;21.20;99.90;;;;;;5097557;28;19908;-74
2021/07/14 05:21:09;;;;;;;;;;;21.30;99.90;;;;;;5096765;28;20349;-74
2021/07/14 05:23:35;;;;;;;;;;;21.30;99.90;;;;;;5097061;28;19908;-74
2021/07/14 05:26:01;;;;;;;;;;;21.40;99.90;;;;;;5096077;28;19916;-74
2021/07/14 05:28:27;;;;;;;;;;;21.40;99.90;;;;;;5096974;28;19904;-74
2021/07/14 05:30:53;;;;;;;;;;;21.50;99.90;;;;;;5096671;28;19904;-74
2021/07/14 05:33:19;;;;;;;;;;;21.60;99.90;;;;;;5097973;28;20024;-77
2021/07/14 05:35:45;;;;;;;;;;;21.70;99.90;;;;;;5097150;28;19919;-74
2021/07/14 05:38:12;;;;;;;;;;;21.70;99.90;;;;;;5096049;28;19927;-76
2021/07/14 05:40:38;;;;;;;;;;;21.80;99.90;;;;;;5095678;28;19912;-77
2021/07/14 05:43:04;;;;;;;;;;;21.90;99.90;;;;;;5096256;28;20361;-74
2021/07/14 05:45:30;;;;;;;;;;;21.90;99.90;;;;;;5096731;28;19923;-75
2021/07/14 05:47:56;;;;;;;;;;;22.00;99.90;;;;;;5096696;28;19911;-77
2021/07/14 05:50:22;;;;;;;;;;;22.10;99.90;;;;;;5096369;28;19908;-75
2021/07/14 05:52:48;;;;;;;;;;;22.10;99.90;;;;;;5097433;28;20307;-75
2021/07/14 05:55:14;;;;;;;;;;;22.10;99.90;;;;;;5097050;28;19927;-75
2021/07/14 05:57:40;;;;;;;;;;;22.20;99.90;;;;;;5096639;28;19911;-74
2021/07/14 06:00:06;;;;;;;;;;;22.30;99.90;;;;;;5095063;28;20319;-77
2021/07/14 06:02:32;;;;;;;;;;;22.30;99.90;;;;;;5096503;28;19931;-76
2021/07/14 06:04:58;;;;;;;;;;;22.40;99.90;;;;;;5097206;28;20272;-76
2021/07/14 06:07:24;;;;;;;;;;;22.40;99.90;;;;;;5097047;28;19912;-76
2021/07/14 06:09:49;;;;;;;;;;;22.40;99.90;;;;;;5097062;28;19912;-76
2021/07/14 06:12:15;;;;;;;;;;;22.50;99.90;;;;;;5096270;28;19908;-74
2021/07/14 06:14:43;;;;;;;;;;;22.50;99.90;;;;;;5096925;28;19908;-75
2021/07/14 06:17:09;;;;;;;;;;;22.50;99.90;;;;;;5096306;28;19908;-72
2021/07/14 06:19:35;;;;;;;;;;;22.60;99.90;;;;;;5097653;28;19912;-74
2021/07/14 06:22:02;;;;;;;;;;;22.70;99.90;;;;;;5098577;28;19916;-76
2021/07/14 06:24:28;;;;;;;;;;;22.90;99.90;;;;;;5098025;28;19904;-75
2021/07/14 06:26:55;;;;;;;;;;;22.90;99.90;;;;;;5109137;28;19911;-74
2021/07/14 06:29:21;;;;;;;;;;;23.00;99.90;;;;;;5106650;28;19914;-74
2021/07/14 06:31:48;;;;;;;;;;;23.00;99.90;;;;;;5100190;28;19912;-74
2021/07/14 06:34:14;;;;;;;;;;;23.10;99.90;;;;;;5112399;28;19904;-73
2021/07/14 06:36:40;;;;;;;;;;;23.30;99.90;;;;;;5100062;28;19944;-73
2021/07/14 06:39:05;;;;;;;;;;;23.30;99.90;;;;;;5095124;28;20039;-75
2021/07/14 06:41:31;;;;;;;;;;;23.40;99.90;;;;;;5095019;28;19939;-74
2021/07/14 06:44:01;;;;;;;;;;;23.70;99.90;;;;;;5095036;28;20353;-73
2021/07/14 06:46:27;;;;;;;;;;;23.70;99.90;;;;;;5095048;28;19928;-75
2021/07/14 06:48:53;;;;;;;;;;;23.80;99.90;;;;;;5095140;28;19904;-72
2021/07/14 06:51:19;;;;;;;;;;;23.80;99.90;;;;;;5093677;28;19927;-75
2021/07/14 06:53:45;;;;;;;;;;;23.80;99.90;;;;;;5094860;28;19914;-75
2021/07/14 06:56:11;;;;;;;;;;;23.80;99.90;;;;;;5094977;28;19911;-73
2021/07/14 06:58:39;;;;;;;;;;;23.90;99.90;;;;;;5092160;28;19915;-74
2021/07/14 07:01:05;;;;;;;;;;;24.00;99.90;;;;;;5094436;28;19935;-72
2021/07/14 07:03:31;;;;;;;;;;;24.20;99.90;;;;;;5094721;28;19908;-72
2021/07/14 07:05:57;;;;;;;;;;;24.20;99.90;;;;;;5094620;28;20269;-74
2021/07/14 07:08:23;;;;;;;;;;;24.40;99.90;;;;;;5094988;28;19912;-73
2021/07/14 07:10:49;;;;;;;;;;;24.50;99.90;;;;;;5095268;28;19908;-73
2021/07/14 07:13:18;;;;;;;;;;;24.50;99.90;;;;;;5094948;28;19912;-74
2021/07/14 07:15:44;;;;;;;;;;;24.60;99.90;;;;;;5095088;28;19912;-72
2021/07/14 07:18:10;;;;;;;;;;;24.70;99.90;;;;;;5094977;28;19911;-73
2021/07/14 07:20:36;;;;;;;23.25;19.10;;;24.90;99.90;;;;;;5093285;28;20410;-74
2021/07/14 07:23:03;;;;;;;22.58;19.65;;;25.00;99.90;;;;;;5093338;28;20380;-73
2021/07/14 07:25:29;;;;;;;23.00;18.75;;;24.90;99.90;;;;;;5093216;28;20372;-74
2021/07/14 07:27:58;;;;;;;23.42;17.90;;;25.10;99.90;;;;;;5093322;28;20718;-72
2021/07/14 07:30:25;;;;;;;20.60;18.10;;;25.30;99.90;;;;;;5094169;28;20169;-74
2021/07/14 07:32:51;;;;;;;23.83;17.83;;;25.60;99.90;;;;;;5094172;28;20626;-71
2021/07/14 07:35:17;;;;;;;27.92;18.75;;;25.70;99.90;;;;;;5094143;28;20173;-73
2021/07/14 07:37:43;;;;;;;25.60;18.15;;;25.70;99.90;;;;;;5092223;28;20224;-74
2021/07/14 07:40:10;;;;;;;22.55;17.58;;;25.60;99.90;;;;;;5093926;28;20181;-74
2021/07/14 07:42:36;;;;;;;21.65;17.38;;;25.60;99.90;;;;;;5093949;28;20180;-72
2021/07/14 07:45:03;;;;;;;18.38;16.48;;;25.70;99.90;;;;;;5093779;28;20212;-73
2021/07/14 07:47:29;;;;;;;20.48;16.30;;;25.80;99.90;;;;;;5093863;28;20501;-74
2021/07/14 07:49:55;;;;;;;20.23;16.45;;;25.70;99.90;;;;;;5093638;28;20180;-74
2021/07/14 07:52:22;;;;;;;24.13;16.75;;;26.00;99.90;;;;;;5093634;28;20169;-74
2021/07/14 07:54:49;;;;;;;21.92;17.27;;;26.10;99.90;;;;;;5093315;28;20621;-74
2021/07/14 07:57:15;;;;;;;19.65;17.55;;;26.00;99.90;;;;;;5075408;28;20192;-72
2021/07/14 07:59:41;;;;;;;20.60;16.80;;;26.00;99.90;;;;;;5093536;28;20193;-72
2021/07/14 08:02:07;;;;;;;18.08;16.13;;;26.10;99.90;;;;;;5093998;28;20203;-70
2021/07/14 08:04:33;;;;;;;21.90;14.75;;;26.20;99.90;;;;;;5093569;28;20177;-69
2021/07/14 08:06:59;;;;;;;18.95;15.27;;;26.40;99.90;;;;;;5093381;28;20609;-69
2021/07/14 08:09:26;;;;;;;22.55;15.70;;;26.50;99.90;;;;;;5092401;28;20169;-69
2021/07/14 08:11:52;;;;;;;19.95;13.93;;;26.60;99.90;;;;;;5092521;28;20189;-69
2021/07/14 08:14:18;;;;;;;20.90;15.00;;;26.50;99.90;;;;;;5093487;28;20173;-70
2021/07/14 08:16:44;;;;;;;13.88;11.52;;;26.90;99.90;;;;;;5093485;28;20176;-70
2021/07/14 08:19:10;;;;;;;12.20;10.80;;;27.20;99.90;;;;;;5093269;28;20169;-71
2021/07/14 08:21:36;;;;;;;12.13;10.68;;;27.30;99.90;;;;;;5093129;28;20672;-70
2021/07/14 08:24:03;;;;;;;17.17;10.13;;;27.30;99.90;;;;;;5093406;28;20538;-71
2021/07/14 08:26:29;;;;;;;20.10;12.00;;;27.40;99.90;;;;;;5093140;28;20204;-71
2021/07/14 08:28:55;;;;;;;14.25;12.10;;;27.10;99.90;;;;;;5093227;28;20178;-71
2021/07/14 08:31:23;;;;;;;13.82;12.45;;;27.00;99.90;;;;;;5093145;28;20174;-69
2021/07/14 08:33:49;;;;;;;15.10;13.10;;;27.10;99.90;;;;;;5093221;28;20543;-70
2021/07/14 08:36:15;;;;;;;17.42;12.88;;;27.50;99.90;;;;;;5093293;28;20023;-72
2021/07/14 08:38:41;;;;;;;;;;;27.50;99.90;;;;;;5091773;28;20209;-71
2021/07/14 08:41:08;;;;;;;;;;;27.50;99.90;;;;;;5090850;28;20356;-69
2021/07/14 08:43:34;;;;;;;;;;;27.90;99.90;;;;;;5093412;28;19915;-71
2021/07/14 08:46:00;;;;;;;;;;;28.60;99.90;;;;;;5091667;28;20049;-69
2021/07/14 08:48:26;;;;;;;;;;;29.30;99.70;;;;;;5093432;28;20317;-72
2021/07/14 08:50:56;;;;;;;;;;;29.40;98.10;;;;;;5093196;28;19914;-71
2021/07/14 08:53:22;;;;;;;;;;;28.90;98.70;;;;;;5093350;28;20017;-71
2021/07/14 08:55:48;;;;;;;;;;;29.20;99.90;;;;;;5093284;28;20377;-71
2021/07/14 08:58:14;;;;;;;;;;;28.80;98.30;;;;;;5093271;28;19916;-71
2021/07/14 09:00:40;;;;;;;;;;;28.60;98.00;;;;;;5093491;28;19915;-71
2021/07/14 09:03:06;;;;;;;;;;;28.90;99.90;;;;;;5093160;28;19908;-69
2021/07/14 09:05:32;;;;;;;;;;;29.00;98.80;;;;;;5092056;28;19918;-70
2021/07/14 09:07:58;;;;;;;;;;;28.70;98.30;;;;;;5093720;28;19919;-69
2021/07/14 09:10:24;;;;;;;;;;;29.00;99.30;;;;;;5093315;28;19904;-68
2021/07/14 09:12:50;;;;;;;;;;;30.10;94.90;;;;;;5093309;28;19908;-69
2021/07/14 09:15:19;;;;;;;17.80;12.50;;;30.90;93.40;;;;;;5091802;28;19904;-70
2021/07/14 09:17:49;;;;;;;;;;;31.30;92.40;;;;;;5093067;28;20196;-68
2021/07/14 09:20:16;;;;;;;;;;;31.60;87.90;;;;;;5092798;28;19916;-69
2021/07/14 09:22:42;;;;;;;;;;;31.90;82.80;;;;;;5093274;28;19908;-68
2021/07/14 09:25:12;;;;;;;;;;;31.80;79.80;;;;;;5093173;28;19908;-68
2021/07/14 09:27:38;;;;;;;;;;;32.00;77.70;;;;;;5093350;28;19919;-69
2021/07/14 09:30:07;;;;;;;;;;;30.90;78.50;;;;;;5093302;28;19912;-68
2021/07/14 09:32:46;;;;;;;;;;;30.50;83.30;;;;;;5091837;28;20372;-68
2021/07/14 09:35:21;;;;;;;;;;;31.20;80.40;;;;;;5093628;28;19916;-68
2021/07/14 09:37:47;;;;;;;;;;;31.60;82.70;;;;;;5092724;28;19931;-67
2021/07/14 09:40:14;;;;;;;;;;;32.10;74.90;;;;;;5092937;28;19935;-68
2021/07/14 09:42:39;;;;;;;;;;;32.10;77.90;;;;;;5093046;28;19908;-68
2021/07/14 09:45:06;;;;;;;;;;;32.00;74.30;;;;;;5091770;28;19920;-67
2021/07/14 09:47:31;;;;;;;;;;;32.30;73.20;;;;;;5093054;28;20309;-68
2021/07/14 09:49:57;;;;;;;;;;;31.90;72.70;;;;;;5091467;28;19915;-68
2021/07/14 09:52:23;;;;;;;;;;;32.00;72.70;;;;;;5092897;28;19919;-69
2021/07/14 09:54:49;;;;;;;;;;;32.30;73.40;;;;;;5092985;28;19919;-67
2021/07/14 09:57:16;;;;;;;;;;;31.90;69.70;;;;;;5093786;28;20380;-68
2021/07/14 09:59:42;;;;;;;;;;;31.90;72.70;;;;;;5095314;28;19908;-67
2021/07/14 10:02:11;;;;;;;;;;;31.90;70.90;;;;;;5096528;28;20323;-68
2021/07/14 10:04:39;;;;;;;;;;;31.70;69.60;;;;;;5096562;28;19912;-68
2021/07/14 10:07:05;;;;;;;;;;;31.20;69.00;;;;;;5096296;28;19928;-67
2021/07/14 10:09:31;;;;;;;;;;;31.10;71.00;;;;;;5096557;28;19908;-67
2021/07/14 10:12:17;;;;;;;;;;;30.90;69.70;;;;;;5096403;28;20387;-66
2021/07/14 10:14:43;;;;;;;;;;;30.80;71.70;;;;;;5088805;28;20376;-67
2021/07/14 10:17:09;;;;;;;;;;;30.40;72.10;;;;;;5096233;28;19908;-67
2021/07/14 10:19:35;;;;;;;;;;;30.30;74.90;;;;;;5095774;28;19912;-67
2021/07/14 10:22:01;;;;;;;;;;;30.70;74.00;;;;;;5095011;28;20006;-67
2021/07/14 10:24:27;;;;;;;;;;;31.20;72.60;;;;;;5096068;28;19908;-67
2021/07/14 10:26:53;;;;;;;;;;;31.00;74.00;;;;;;5094764;28;19916;-67
2021/07/14 10:29:19;;;;;;;;;;;30.60;76.00;;;;;;5095950;28;19919;-67
2021/07/14 10:31:49;;;;;;;;;;;30.20;79.00;;;;;;5095975;28;19919;-67
2021/07/14 10:34:15;;;;;;;;;;;30.80;79.30;;;;;;5095927;28;19912;-67
2021/07/14 10:36:41;;;;;;;;;;;31.40;77.70;;;;;;5095798;28;19927;-67
2021/07/14 10:39:09;;;;;;;;;;;31.50;76.30;;;;;;5094905;28;19909;-67
2021/07/14 10:41:35;;;;;;;;;;;31.90;77.50;;;;;;5095862;28;20391;-68
2021/07/14 10:44:01;;;;;;;;;;;31.70;74.60;;;;;;5095867;28;19915;-68
2021/07/14 10:46:29;;;;;;;;;;;31.70;74.50;;;;;;5094497;28;19916;-67
2021/07/14 10:48:56;;;;;;;;;;;31.90;73.30;;;;;;5094398;28;19912;-67
2021/07/14 10:51:25;;;;;;;;;;;31.00;73.10;;;;;;5095344;28;19935;-67
2021/07/14 10:54:02;;;;;;;;;;;30.60;75.20;;;;;;5095754;28;19913;-66
2021/07/14 10:56:28;;;;;;;;;;;30.70;73.40;;;;;;5095606;28;19915;-67
2021/07/14 10:58:54;;;;;;;;;;;31.20;76.40;;;;;;5094355;28;19915;-66
2021/07/14 11:01:39;;;;;;;;;;;31.00;72.80;;;;;;5094174;28;19916;-66
2021/07/14 11:04:05;;;;;;;;;;;31.40;74.20;;;;;;5095879;28;19919;-67
2021/07/14 11:06:31;;;;;;;;;;;31.20;72.80;;;;;;5076969;28;19931;-68
2021/07/14 11:08:57;;;;;;;;;;;30.80;74.80;;;;;;5093714;28;19915;-67
2021/07/14 11:11:23;;;;;;;;;;;30.30;76.10;;;;;;5095622;28;19912;-67
2021/07/14 11:13:52;;;;;;;;;;;30.00;76.70;;;;;;5095268;28;19908;-68
2021/07/14 11:16:34;;;;;;;;;;;29.50;77.50;;;;;;5093767;28;19908;-67
2021/07/14 11:19:06;;;;;;;;;;;29.20;79.10;;;;;;5094940;28;19912;-67
2021/07/14 11:21:44;;;;;;;;;;;29.30;80.20;;;;;;5094464;28;19915;-67
2021/07/14 11:24:10;;;;;;;;;;;28.90;82.40;;;;;;5093539;28;20277;-67
2021/07/14 11:26:36;;;;;;;;;;;28.70;82.60;;;;;;5094784;28;19920;-67
2021/07/14 11:29:20;;;;;;;;;;;28.90;81.20;;;;;;5095339;28;19912;-67
2021/07/14 11:31:46;;;;;;;;;;;28.80;81.60;;;;;;5095252;28;20226;-67
2021/07/14 11:34:29;;;;;;;;;;;28.80;79.90;;;;;;5094868;28;19920;-67
2021/07/14 11:36:55;;;;;;;;;;;29.10;81.10;;;;;;5094737;28;20364;-68
2021/07/14 11:39:28;;;;;;;;;;;29.00;79.30;;;;;;5094822;28;19919;-68
2021/07/14 11:42:13;;;;;;;;;;;29.50;78.80;;;;;;5094929;28;19908;-68
2021/07/14 11:44:39;;;;;;;;;;;30.60;78.30;;;;;;5094610;28;19915;-68
2021/07/14 11:47:24;;;;;;;;;;;31.50;75.40;;;;;;5094386;28;19931;-68
2021/07/14 11:49:50;;;;;;;;;;;31.70;74.10;;;;;;5094325;28;19908;-68
2021/07/14 11:52:36;;;;;;;;;;;31.60;74.70;;;;;;5094913;28;19966;-68
2021/07/14 11:55:20;;;;;;;;;;;31.80;72.70;;;;;;5086975;28;19908;-67
2021/07/14 11:57:46;;;;;;;;;;;31.60;70.50;;;;;;5094353;28;19908;-67
2021/07/14 12:00:12;;;;;;;;;;;31.30;67.20;;;;;;5094022;28;19915;-67
2021/07/14 12:02:38;;;;;;;;;;;31.20;73.90;;;;;;5093120;28;19921;-68
2021/07/14 12:05:08;;;;;;;;;;;31.30;76.30;;;;;;5094155;28;19919;-68
2021/07/14 12:07:41;;;;;;;;;;;30.90;76.30;;;;;;5094766;28;19931;-68
2021/07/14 12:10:17;;;;;;;;;;;30.70;77.00;;;;;;5094248;28;19919;-68
2021/07/14 12:12:46;;;;;;;;;;;30.40;77.30;;;;;;5094241;28;19912;-67
2021/07/14 12:15:12;;;;;;;;;;;30.50;78.10;;;;;;5094536;28;19908;-68
2021/07/14 12:17:38;;;;;;;;;;;30.50;79.30;;;;;;5094525;28;20375;-67
2021/07/14 12:20:04;;;;;;;;;;;30.60;80.90;;;;;;5092989;28;19915;-68
2021/07/14 12:22:31;;;;;;;;;;;30.50;80.80;;;;;;5093821;28;19920;-68
2021/07/14 12:25:09;;;;;;;;;;;30.40;81.40;;;;;;5093979;28;19915;-68
2021/07/14 12:27:35;;;;;;;;;;;30.30;80.20;;;;;;5093856;28;19920;-68
2021/07/14 12:30:11;;;;;;;;;;;30.20;80.10;;;;;;5093765;28;19912;-66
2021/07/14 12:32:37;;;;;;;;;;;29.90;80.80;;;;;;5092534;28;20372;-67
2021/07/14 12:35:04;;;;;;;;;;;29.40;81.10;;;;;;5093698;28;19908;-68
2021/07/14 12:37:30;;;;;;;;;;;29.40;83.50;;;;;;5093293;28;20327;-68
2021/07/14 12:39:58;;;;;;;;;;;29.10;82.50;;;;;;5092770;28;21340;-68
2021/07/14 12:42:24;;;;;;;;;;;29.20;84.80;;;;;;5093482;28;19912;-68
2021/07/14 12:44:50;;;;;;;;;;;29.00;82.20;;;;;;5075661;28;19909;-68
2021/07/14 12:47:17;;;;;;;;;;;29.20;83.70;;;;;;5093477;28;19927;-68
2021/07/14 12:49:44;;;;;;;;;;;29.10;81.80;;;;;;5093241;28;19912;-68
2021/07/14 12:52:10;;;;;;;;;;;29.20;83.80;;;;;;5093457;28;19914;-68
2021/07/14 12:54:37;;;;;;;;;;;29.10;81.20;;;;;;5093369;28;20280;-68
2021/07/14 12:57:15;;;;;;;;;;;28.90;81.60;;;;;;5093413;28;19916;-68
2021/07/14 13:00:11;;;;;;;;;;;28.80;81.50;;;;;;5093296;28;19912;-68
2021/07/14 13:02:38;;;;;;;;;;;28.90;81.90;;;;;;5084541;28;19923;-68
2021/07/14 13:05:04;;;;;;;;;;;28.90;82.00;;;;;;5093232;28;20293;-69
2021/07/14 13:07:30;;;;;;;;;;;28.90;81.60;;;;;;5093739;28;19923;-68
2021/07/14 13:10:00;;;;;;;;;;;29.20;83.20;;;;;;5092353;28;19923;-68
2021/07/14 13:12:26;;;;;;;;;;;29.20;83.90;;;;;;5092141;28;19919;-68
2021/07/14 13:14:53;;;;;;;;;;;29.50;81.40;;;;;;5092183;28;19909;-69
2021/07/14 13:17:29;;;;;;;;;;;29.50;79.80;;;;;;5092131;28;19912;-68
2021/07/14 13:20:02;;;;;;;;;;;29.60;81.20;;;;;;5092873;28;20280;-68
2021/07/14 13:22:28;;;;;;;;;;;29.80;81.00;;;;;;5093176;28;19908;-68
2021/07/14 13:25:01;;;;;;;;;;;29.80;78.80;;;;;;5093264;28;20007;-68
2021/07/14 13:27:27;;;;;;;;;;;29.80;79.70;;;;;;5093081;28;19924;-68
2021/07/14 13:29:53;;;;;;;;;;;29.60;79.00;;;;;;5092019;28;19909;-69
2021/07/14 13:32:19;;;;;;;;;;;29.60;80.30;;;;;;5095677;28;20392;-69
2021/07/14 13:34:45;;;;;;;;;;;29.70;80.70;;;;;;5095897;28;19912;-69
2021/07/14 13:37:11;;;;;;;;;;;29.40;77.20;;;;;;5097070;28;19931;-68
2021/07/14 13:39:39;;;;;;;;;;;29.40;82.10;;;;;;5095448;28;19919;-68
2021/07/14 13:42:18;;;;;;;;;;;29.50;78.90;;;;;;5097020;28;19916;-68
2021/07/14 13:44:44;;;;;;;;;;;29.50;80.60;;;;;;5096849;28;19912;-69
2021/07/14 13:47:20;;;;;;;;;;;29.50;80.00;;;;;;5096759;28;19928;-69
2021/07/14 13:49:46;;;;;;;;;;;29.30;79.20;;;;;;5096560;28;19912;-69
2021/07/14 13:52:22;;;;;;;;;;;29.40;81.40;;;;;;5096664;28;19915;-67
2021/07/14 13:54:48;;;;;;;;;;;29.40;78.10;;;;;;5095494;28;19908;-69
2021/07/14 13:57:14;;;;;;;;;;;29.40;79.10;;;;;;5095711;28;19912;-69
2021/07/14 13:59:42;;;;;;;;;;;29.40;77.50;;;;;;5096661;28;19915;-68
2021/07/14 14:02:12;;;;;;;;;;;29.40;76.10;;;;;;5096569;28;20260;-68
2021/07/14 14:04:41;;;;;;;;;;;29.40;77.30;;;;;;5095440;28;19908;-69
2021/07/14 14:07:07;;;;;;;;;;;29.60;75.10;;;;;;5096765;28;20470;-68
2021/07/14 14:09:33;;;;;;;;;;;29.70;75.40;;;;;;5096357;28;19931;-68
2021/07/14 14:12:19;;;;;;;;;;;29.60;75.40;;;;;;5096313;28;19908;-68
2021/07/14 14:14:44;;;;;;;;;;;29.40;76.20;;;;;;5096373;28;19908;-69
2021/07/14 14:17:10;;;;;;;;;;;29.50;77.20;;;;;;5096214;28;19920;-69
2021/07/14 14:19:36;;;;;;;;;;;29.40;77.10;;;;;;5095903;28;19919;-69